METAR stanice u blizini

 

LYNI - Nis, Yugoslavia
Distance from station: JZ 40km
Ažurirano: 22/02/2020 20:00
Vedro
Vedro
 Pravac vetra I
Vetar: I 6 km/h
Temperatura: 3°C
Tačka rose: -2°C
Vlažnost: 70%
Pritisak: 1031 hPa
Pregled: Vedro
Vidljivost: greater than 10 km
2020/02/22 19:00 LYNI 221900Z 10003KT 040V130 CAVOK 03/M02 Q1031 NOSIG
LYKV - Kraljevo, Yugoslavia
Distance from station: ZSZ 136km
Ažurirano: 22/02/2020 20:00
Vedro
Vedro
 Pravac vetra JI
Vetar: JI 6 km/h
Temperatura: 0°C
Tačka rose: 0°C
Vlažnost: 100%
Pritisak: 1031 hPa
Pregled: Vedro
Vidljivost: greater than 10 km
2020/02/22 19:00 LYKV 221900Z 13003KT CAVOK 00/00 Q1031 NOSIG
LBSF - Sofia (observato, Bulgaria
Distance from station: JI 138km
Ažurirano: 22/02/2020 20:00
Oblačno
Oblačno
 Pravac vetra Z
Vetar: Z 15 km/h
Temperatura: 4°C
Osećaj hladnoće: 1°C
Tačka rose: -1°C
Vlažnost: 70%
Pritisak: 1029 hPa
Oblaci: Oblačno
Vidljivost: 10 km
Cloud details: Oblačno 1707 m
2020/02/22 19:00 LBSF 221900Z 28008KT 9999 OVC056 04/M01 Q1029 NOSIG
 
BKPR - Prishtina, Yugoslavia
Distance from station: JZ 147km
Ažurirano: 22/02/2020 20:30
Vedro
Vedro
 Pravac vetra varies
Vetar: varies 2 km/h
Temperatura: 0°C
Tačka rose: -6°C
Vlažnost: 64%
Pritisak: 1030 hPa
Pregled: Vedro
Vidljivost: greater than 10 km
2020/02/22 19:30 BKPR 221930Z VRB01KT CAVOK M00/M06 Q1030 NOSIG RMK 17010095
LRCV - Craiova, Romania
Distance from station: SI 154km
Ažurirano: 22/02/2020 20:00
Vedro
Vedro
 Pravac vetra ZJZ
Vetar: ZJZ 11 km/h
Temperatura: 3°C
Osećaj hladnoće: 0°C
Tačka rose: 0°C
Vlažnost: 81%
Pritisak: 1028 hPa
Pregled: Vedro
Vidljivost: greater than 10 km
2020/02/22 19:00 LRCV 221900Z 24006KT CAVOK 03/M00 Q1028
LWSK - Skopje/Petrovac, Macedonia
Distance from station: JJZ 185km
Ažurirano: 22/02/2020 20:00
Vedro
Vedro
 Pravac vetra SI
Vetar: SI 4 km/h
Temperatura: 3°C
Tačka rose: -2°C
Vlažnost: 70%
Pritisak: 1031 hPa
Pregled: Vedro
Vidljivost: greater than 10 km
2020/02/22 19:00 LWSK 221900Z 04002KT CAVOK 03/M02 Q1031 NOSIG
 
LYVR - Vrsac, Yugoslavia
Distance from station: SSZ 189km
Ažurirano: 22/02/2020 20:00
Vedro
Vedro
 Pravac vetra varies
Vetar: varies 2 km/h
Temperatura: 0°C
Tačka rose: -2°C
Vlažnost: 87%
Pritisak: 1030 hPa
Pregled: Vedro
Vidljivost: greater than 10 km
2020/02/22 19:00 LYVR 221900Z AUTO VRB01KT CAVOK M00/M02 Q1030
LYUZ - Uzice-Ponikve, Yugoslavia
Distance from station: Z 207km
Ažurirano: 22/02/2020 20:00
Vedro
Vedro
 Pravac vetra JZ
Vetar: JZ 4 km/h
Temperatura: -3°C
Tačka rose: -6°C
Vlažnost: 80%
Pritisak: 1028 hPa
Pregled: Vedro
Vidljivost: greater than 10 km
2020/02/22 19:00 LYUZ 221900Z AUTO 23002KT CAVOK M03/M06 Q1028
LYBE - Belgrade/Surcin, Yugoslavia
Distance from station: SZ 209km
Ažurirano: 22/02/2020 20:00
Vedro
Vedro
 Pravac vetra JJI
Vetar: JJI 7 km/h
Temperatura: 4°C
Osećaj hladnoće: 2°C
Tačka rose: -3°C
Vlažnost: 61%
Pritisak: 1030 hPa
Pregled: Vedro
Vidljivost: greater than 10 km
2020/02/22 19:00 LYBE 221900Z 15004KT CAVOK 04/M03 Q1030 NOSIG
 
LYBT - Batajnica, Yugoslavia
Distance from station: SZ 219km
Ažurirano: 22/02/2020 20:00
Vedro
Vedro
 Pravac vetra IJI
Vetar: IJI 7 km/h
Temperatura: 3°C
Osećaj hladnoće: 1°C
Tačka rose: -3°C
Vlažnost: 65%
Pritisak: 1030 hPa
Pregled: Vedro
Vidljivost: greater than 10 km
2020/02/22 19:00 LYBT 221900Z 12004KT CAVOK 03/M03 Q1030 NOSIG
LRTR - Timisoara/Giarma, Romania
Distance from station: SSZ 260km
Ažurirano: 22/02/2020 20:00
Vedro
Vedro
 Pravac vetra J
Vetar: J 9 km/h
Temperatura: 4°C
Osećaj hladnoće: 2°C
Tačka rose: -2°C
Vlažnost: 65%
Pritisak: 1029 hPa
Pregled: Vedro
Vidljivost: greater than 10 km
2020/02/22 19:00 LRTR 221900Z 19005KT CAVOK 04/M02 Q1029
LBPD - Plovdiv, Bulgaria
Distance from station: JI 263km
Ažurirano: 22/02/2020 20:00
Oblačno
Oblačno
 Pravac vetra J
Vetar: J 9 km/h
Temperatura: 6°C
Osećaj hladnoće: 4°C
Tačka rose: 0°C
Vlažnost: 66%
Pritisak: 1029 hPa
Oblaci: Oblačno
Vidljivost: 10 km
Cloud details: Oblačno 2377 m
2020/02/22 19:00 LBPD 221900Z AUTO 17005KT 9999 OVC078 06/M00 Q1029 NOSIG
 
LYPG - Podgorica(Titogr, Yugoslavia
Distance from station: ZJZ 278km
Ažurirano: 22/02/2020 20:00
Vedro
Vedro
 Pravac vetra SSI
Vetar: SSI 11 km/h
Temperatura: 8°C
Osećaj hladnoće: 6°C
Tačka rose: -6°C
Vlažnost: 37%
Pritisak: 1030 hPa
Pregled: Vedro
Vidljivost: greater than 10 km
2020/02/22 19:00 LYPG 221900Z 02006KT CAVOK 08/M06 Q1030 NOSIG
LBGO - Gorna Orechovist, Bulgaria
Distance from station: I 285km
Ažurirano: 22/02/2020 20:00
Vedro
Vedro
 Pravac vetra calm
Vetar: Tišina
Temperatura: 4°C
Tačka rose: 3°C
Vlažnost: 93%
Pritisak: 1030 hPa
Oblaci: Vedro
Vidljivost: 10 km
2020/02/22 19:00 LBGO 221900Z AUTO 00000KT 9999 NCD 04/03 Q1030
LRSB - Sibiu/Turnisor, Romania
Distance from station: SSI 286km
Ažurirano: 22/02/2020 20:00
Few Clouds
Few Clouds
 Pravac vetra calm
Vetar: Tišina
Temperatura: 0°C
Tačka rose: -3°C
Vlažnost: 80%
Pritisak: 1028 hPa
Oblaci: Few Clouds
Vidljivost: 10 km
Cloud details: Few Clouds 1585 m
2020/02/22 19:00 LRSB 221900Z 00000KT 9999 FEW052 00/M03 Q1028
 
LWOH - Ohrid, Macedonia
Distance from station: JJZ 292km
Ažurirano: 22/02/2020 20:00
Vedro
Vedro
 Pravac vetra SSI
Vetar: SSI 9 km/h
Temperatura: 0°C
Osećaj hladnoće: -3°C
Tačka rose: -7°C
Vlažnost: 60%
Pritisak: 1028 hPa
Pregled: Vedro
Vidljivost: greater than 10 km
2020/02/22 19:00 LWOH 221900Z 03005KT CAVOK 00/M07 Q1028
LQTZ - Tuzla, Yugoslavia
Distance from station: ZSZ 298km
Ažurirano: 22/02/2020 20:00
Vedro
Vedro
 Pravac vetra varies
Vetar: varies 4 km/h
Temperatura: 1°C
Tačka rose: -4°C
Vlažnost: 70%
Pritisak: 1029 hPa
Pregled: Vedro
Vidljivost: greater than 10 km
2020/02/22 19:00 LQTZ 221900Z VRB02KT CAVOK 01/M04 Q1029
LRAR - Arad, Romania
Distance from station: SSZ 301km
Ažurirano: 22/02/2020 20:00
Vedro
Vedro
 Pravac vetra JJZ
Vetar: JJZ 11 km/h
Temperatura: 3°C
Osećaj hladnoće: 0°C
Tačka rose: -1°C
Vlažnost: 75%
Pritisak: 1029 hPa
Pregled: Vedro
Vidljivost: greater than 10 km
2020/02/22 19:00 LRAR 221900Z 20006KT CAVOK 03/M01 Q1029
 
LYTV - Tivat, Yugoslavia
Distance from station: ZJZ 315km
Ažurirano: 22/02/2020 20:00
Vedro
Vedro
 Pravac vetra varies
Vetar: varies 4 km/h
Temperatura: 4°C
Tačka rose: -1°C
Vlažnost: 70%
Pritisak: 1030 hPa
Pregled: Vedro
Vidljivost: greater than 10 km
2020/02/22 19:00 LYTV 221900Z VRB02KT CAVOK 04/M01 Q1030
LATI - Tirana, Albania
Distance from station: JZ 316km
Ažurirano: 22/02/2020 20:20
Vedro
Vedro
 Pravac vetra SI
Vetar: SI 2 km/h
Temperatura: 5°C
Tačka rose: -2°C
Vlažnost: 61%
Pritisak: 1029 hPa
Pregled: Vedro
Vidljivost: greater than 10 km
2020/02/22 19:20 LATI 221920Z 05001KT CAVOK 05/M02 Q1029 NOSIG
LQBK - Banja Luka, Yugoslavia
Distance from station: SZ 426km
Ažurirano: 22/02/2020 20:00
Vedro
Vedro
 Pravac vetra JJI
Vetar: JJI 7 km/h
Temperatura: 4°C
Osećaj hladnoće: 2°C
Tačka rose: -3°C
Vlažnost: 61%
Pritisak: 1029 hPa
Pregled: Vedro
Vidljivost: greater than 10 km
2020/02/22 19:00 LQBK 221900Z 16004KT CAVOK 04/M03 Q1029 NOSIG
 
LDOS - Osijek, Croatia
Distance from station: SSZ 360km
Ažurirano: 22/02/2020 20:00
Vedro
Vedro
 Pravac vetra J
Vetar: J 13 km/h
Temperatura: 3°C
Osećaj hladnoće: -1°C
Tačka rose: -2°C
Vlažnost: 70%
Pritisak: 1029 hPa
Pregled: Vedro
Vidljivost: greater than 10 km
2020/02/22 19:00 LDOS 221900Z 19007KT CAVOK 03/M02 Q1029
LDDU - Dubrovnik-Cilipi, Croatia
Distance from station: JZ 352km
Ažurirano: 22/02/2020 20:00
Vedro
Vedro
 Pravac vetra I
Vetar: I 11 km/h
Temperatura: 7°C
Osećaj hladnoće: 5°C
Tačka rose: -1°C
Vlažnost: 57%
Pritisak: 1029 hPa
Pregled: Vedro
Vidljivost: greater than 10 km
2020/02/22 19:00 LDDU 221900Z 10006KT 080V140 CAVOK 07/M01 Q1029 NOSIG
LQMO - Mostar Airport, Bosnia-Herzegovina
Distance from station: Z 359km
Ažurirano: 22/02/2020 20:00
Vedro
Vedro
 Pravac vetra IJI
Vetar: IJI 7 km/h
Temperatura: 7°C
Osećaj hladnoće: 6°C
Tačka rose: -7°C
Vlažnost: 37%
Pritisak: 1029 hPa
Pregled: Vedro
Vidljivost: greater than 10 km
2020/02/22 19:00 LQMO 221900Z 11004KT CAVOK 07/M07 Q1029
 
LQSA - Sarajevo/Butmir, Yugoslavia
Distance from station: Z 311km
Ažurirano: 22/02/2020 20:00
Vedro
Vedro
 Pravac vetra varies
Vetar: varies 4 km/h
Temperatura: 1°C
Tačka rose: -5°C
Vlažnost: 65%
Pritisak: 1030 hPa
Pregled: Vedro
Vidljivost: greater than 10 km
2020/02/22 19:00 LQSA 221900Z VRB02KT CAVOK 01/M05 Q1030 NOSIG
LDSP - Split/Kastel Sta, Croatia
Distance from station: Z 468km
Ažurirano: 22/02/2020 20:00
Vedro
Vedro
 Pravac vetra SZ
Vetar: SZ 28 km/h
Temperatura: 11°C
Tačka rose: 0°C
Vlažnost: 47%
Pritisak: 1029 hPa
Pregled: Vedro
Vidljivost: greater than 10 km
2020/02/22 19:00 LDSP 221900Z 31015KT CAVOK 11/00 Q1029 BECMG 34008KT
LDZD - Zadar/Zemunik, Croatia
Distance from station: ZSZ 567km
Ažurirano: 22/02/2020 20:00
Vedro
Vedro
 Pravac vetra varies
Vetar: varies 4 km/h
Temperatura: 5°C
Tačka rose: 1°C
Vlažnost: 76%
Pritisak: 1031 hPa
Pregled: Vedro
Vidljivost: greater than 10 km
2020/02/22 19:00 LDZD 221900Z VRB02KT CAVOK 05/01 Q1031 NOSIG
 
LDZA - Zagreb/Pleso, Croatia
Distance from station: SZ 555km
Ažurirano: 22/02/2020 20:00
Vedro
Vedro
 Pravac vetra JJZ
Vetar: JJZ 7 km/h
Temperatura: 6°C
Osećaj hladnoće: 4°C
Tačka rose: -4°C
Vlažnost: 49%
Pritisak: 1028 hPa
Pregled: Vedro
Vidljivost: greater than 10 km
2020/02/22 19:00 LDZA 221900Z 20004KT CAVOK 06/M04 Q1028 NOSIG
LJCE - Cerklje, Slovenia
Distance from station: SZ 680km
Ažurirano: 22/02/2020 20:00
Vedro
Vedro
 Pravac vetra ZJZ
Vetar: ZJZ 7 km/h
Temperatura: 8°C
Osećaj hladnoće: 7°C
Tačka rose: 1°C
Vlažnost: 62%
Pritisak: 1028 hPa
Oblaci: Vedro
Vidljivost: 10 km
2020/02/22 19:00 LJCE 221900Z AUTO 24004KT 9999 NCD 08/01 Q1028
LJMB - Maribor, Slovenia
Distance from station: SZ 616km
Ažurirano: 22/02/2020 20:00
Vedro
Vedro
 Pravac vetra J
Vetar: J 11 km/h
Temperatura: 6°C
Osećaj hladnoće: 4°C
Tačka rose: -3°C
Vlažnost: 53%
Pritisak: 1026 hPa
Pregled: Vedro
Vidljivost: greater than 10 km
2020/02/22 19:00 LJMB 221900Z 19006KT CAVOK 06/M03 Q1026
 
LJLJ - Ljubljana/Brnik, Slovenia
Distance from station: SZ 671km
Ažurirano: 22/02/2020 20:00
Vedro
Vedro
 Pravac vetra varies
Vetar: varies 4 km/h
Temperatura: 4°C
Tačka rose: 0°C
Vlažnost: 75%
Pritisak: 1028 hPa
Pregled: Vedro
Vidljivost: greater than 10 km
2020/02/22 19:00 LJLJ 221900Z VRB02KT CAVOK 04/00 Q1028 NOSIG
LDRI - Rijeka, Croatia
Distance from station: SZ 650km
Ažurirano: 22/02/2020 20:00
Vedro
Vedro
 Pravac vetra JI
Vetar: JI 7 km/h
Temperatura: 9°C
Osećaj hladnoće: 8°C
Tačka rose: 3°C
Vlažnost: 66%
Pritisak: 1031 hPa
Pregled: Vedro
Vidljivost: greater than 10 km
2020/02/22 19:00 LDRI 221900Z 14004KT CAVOK 09/03 Q1031
LDPL - Pula, Croatia
Distance from station: ZSZ 686km
Ažurirano: 22/02/2020 20:00
Vedro
Vedro
 Pravac vetra varies
Vetar: varies 4 km/h
Temperatura: 6°C
Tačka rose: 2°C
Vlažnost: 76%
Pritisak: 1031 hPa
Pregled: Vedro
Vidljivost: greater than 10 km
2020/02/22 19:00 LDPL 221900Z VRB02KT CAVOK 06/02 Q1031 NOSIG
 
LJPZ - Portorož, Slovenia
Distance from station: ZSZ 720km
Ažurirano: 22/02/2020 20:00
Vedro
Vedro
 Pravac vetra IJI
Vetar: IJI 13 km/h
Temperatura: 6°C
Osećaj hladnoće: 3°C
Tačka rose: 3°C
Vlažnost: 81%
Pritisak: 1031 hPa
Pregled: Vedro
Vidljivost: greater than 10 km
2020/02/22 19:00 LJPZ 221900Z 12007KT CAVOK 06/03 Q1031